BAW31 VHHH-EGLL
Flight info
| Callsign | BAW31 |
|---|---|
| Flight time | N/A |
| Altitude | 34100 |
| Route | BEKOL A461 SHL W22 TEPID W24 OSNOV G586 QP B330 ELKAL W179 IGNAK/K0930S1010 W179 WFX/K0917S1040 W179 OMBON W195 VIDEK/K0924S1010 W195 LAXAL/K0913S1040 W195 IDOPA W197 ANDIM B215 IBANO G470 AKLAS W192 FKG A368 SARIN/K0904F340 N161 GASBI/N0499F340 N161 LEYLA T916 MATAL DCT TABAS DCT REBLO UM11 CRM/N0494F360 UL746 ODERO DCT OPT DCT ENIMA DCT TEGRI DCT ABETI DCT RENKA DCT INBED DCT BOMBI DCT ADKUV DCT LENDO DCT SOGRI DCT DENUT L608 LOGAN |
| Aircraft | A35K/H-SDE2E3GHIJ3J4J5LM1ORWXY/LB1D1 |
Departure
| Time | 2026-05-06 06:57 |
|---|---|
| Airport | Hong Kong International Airport (VHHH) |
Arrival
| Time | N/A |
|---|---|
| Airport | London Heathrow Airport (EGLL) |
| Time | Latitude | Longitude | Altitude | Speed | Heading |
|---|---|---|---|---|---|
| 2026-05-06 06:26 | 22.30924 | 113.92649 | 38 ft | 0 kts | 296° |
| 2026-05-06 06:40 | 22.30919 | 113.92660 | 36 ft | 4 kts | 296° |
| 2026-05-06 06:40 | 22.30907 | 113.92686 | 35 ft | 4 kts | 296° |
| 2026-05-06 06:40 | 22.30898 | 113.92708 | 34 ft | 4 kts | 291° |
| 2026-05-06 06:41 | 22.30894 | 113.92734 | 38 ft | 4 kts | 249° |
| 2026-05-06 06:41 | 22.30909 | 113.92755 | 34 ft | 4 kts | 208° |
| 2026-05-06 06:41 | 22.30932 | 113.92767 | 36 ft | 4 kts | 206° |
| 2026-05-06 06:41 | 22.30950 | 113.92776 | 36 ft | 0 kts | 206° |
| 2026-05-06 06:44 | 22.30947 | 113.92774 | 36 ft | 1 kts | 206° |
| 2026-05-06 06:45 | 22.30939 | 113.92771 | 35 ft | 2 kts | 205° |
| 2026-05-06 06:45 | 22.30919 | 113.92760 | 36 ft | 4 kts | 206° |
| 2026-05-06 06:45 | 22.30883 | 113.92742 | 37 ft | 7 kts | 206° |
| 2026-05-06 06:45 | 22.30839 | 113.92711 | 38 ft | 8 kts | 224° |
| 2026-05-06 06:46 | 22.30816 | 113.92648 | 38 ft | 10 kts | 252° |
| 2026-05-06 06:46 | 22.30791 | 113.92570 | 38 ft | 12 kts | 251° |
| 2026-05-06 06:46 | 22.30762 | 113.92480 | 38 ft | 14 kts | 251° |
| 2026-05-06 06:46 | 22.30733 | 113.92383 | 38 ft | 11 kts | 268° |
| 2026-05-06 06:47 | 22.30785 | 113.92334 | 38 ft | 10 kts | 340° |
| 2026-05-06 06:47 | 22.30853 | 113.92307 | 38 ft | 11 kts | 341° |
| 2026-05-06 06:47 | 22.30923 | 113.92281 | 38 ft | 11 kts | 341° |
| 2026-05-06 06:47 | 22.30995 | 113.92255 | 38 ft | 12 kts | 341° |
| 2026-05-06 06:48 | 22.31074 | 113.92225 | 38 ft | 12 kts | 340° |
| 2026-05-06 06:48 | 22.31159 | 113.92194 | 38 ft | 13 kts | 341° |
| 2026-05-06 06:48 | 22.31247 | 113.92161 | 38 ft | 14 kts | 342° |
| 2026-05-06 06:48 | 22.31340 | 113.92127 | 38 ft | 14 kts | 341° |
| 2026-05-06 06:49 | 22.31436 | 113.92091 | 38 ft | 15 kts | 341° |
| 2026-05-06 06:49 | 22.31521 | 113.92049 | 38 ft | 12 kts | 309° |
| 2026-05-06 06:49 | 22.31513 | 113.91966 | 38 ft | 12 kts | 250° |
| 2026-05-06 06:49 | 22.31484 | 113.91879 | 38 ft | 13 kts | 250° |
| 2026-05-06 06:50 | 22.31452 | 113.91783 | 38 ft | 14 kts | 250° |
| 2026-05-06 06:50 | 22.31421 | 113.91679 | 38 ft | 15 kts | 252° |
| 2026-05-06 06:50 | 22.31387 | 113.91568 | 38 ft | 16 kts | 252° |
| 2026-05-06 06:50 | 22.31347 | 113.91453 | 38 ft | 17 kts | 249° |
| 2026-05-06 06:51 | 22.31307 | 113.91332 | 38 ft | 17 kts | 250° |
| 2026-05-06 06:51 | 22.31267 | 113.91206 | 38 ft | 18 kts | 251° |
| 2026-05-06 06:51 | 22.31227 | 113.91082 | 38 ft | 18 kts | 251° |
| 2026-05-06 06:51 | 22.31186 | 113.90956 | 38 ft | 18 kts | 250° |
| 2026-05-06 06:52 | 22.31145 | 113.90831 | 38 ft | 18 kts | 251° |
| 2026-05-06 06:52 | 22.31105 | 113.90706 | 38 ft | 18 kts | 251° |
| 2026-05-06 06:52 | 22.31065 | 113.90580 | 37 ft | 18 kts | 251° |
| 2026-05-06 06:52 | 22.31042 | 113.90509 | 37 ft | 18 kts | 251° |
| 2026-05-06 06:53 | 22.31007 | 113.90397 | 38 ft | 18 kts | 251° |
| 2026-05-06 06:53 | 22.30966 | 113.90273 | 38 ft | 17 kts | 251° |
| 2026-05-06 06:53 | 22.30926 | 113.90149 | 38 ft | 17 kts | 250° |
| 2026-05-06 06:54 | 22.30887 | 113.90027 | 38 ft | 17 kts | 251° |
| 2026-05-06 06:54 | 22.30857 | 113.89935 | 38 ft | 12 kts | 250° |
| 2026-05-06 06:54 | 22.30850 | 113.89854 | 38 ft | 10 kts | 300° |
| 2026-05-06 06:54 | 22.30912 | 113.89824 | 38 ft | 10 kts | 340° |
| 2026-05-06 06:55 | 22.30978 | 113.89798 | 37 ft | 11 kts | 340° |
| 2026-05-06 06:55 | 22.31051 | 113.89770 | 35 ft | 8 kts | 340° |
| 2026-05-06 06:55 | 22.31086 | 113.89791 | 35 ft | 6 kts | 56° |
| 2026-05-06 06:55 | 22.31101 | 113.89831 | 35 ft | 6 kts | 71° |
| 2026-05-06 06:56 | 22.31120 | 113.89889 | 36 ft | 21 kts | 70° |
| 2026-05-06 06:56 | 22.31244 | 113.90269 | 36 ft | 86 kts | 70° |
| 2026-05-06 06:56 | 22.31509 | 113.91096 | 38 ft | 145 kts | 70° |
| 2026-05-06 06:56 | 22.31895 | 113.92287 | 123 ft | 187 kts | 70° |
| 2026-05-06 06:57 | 22.32335 | 113.93561 | 998 ft | 178 kts | 70° |
| 2026-05-06 06:57 | 22.32775 | 113.94832 | 1626 ft | 184 kts | 72° |
| 2026-05-06 06:57 | 22.33211 | 113.96164 | 1861 ft | 192 kts | 72° |
| 2026-05-06 06:57 | 22.33530 | 113.97253 | 2022 ft | 198 kts | 77° |
| 2026-05-06 06:58 | 22.33597 | 113.97558 | 2051 ft | 200 kts | 80° |
| 2026-05-06 06:58 | 22.33784 | 113.99086 | 2199 ft | 210 kts | 87° |
| 2026-05-06 06:58 | 22.33917 | 114.00692 | 2427 ft | 220 kts | 85° |
| 2026-05-06 06:58 | 22.34124 | 114.02370 | 2688 ft | 230 kts | 82° |
| 2026-05-06 06:59 | 22.34287 | 114.04096 | 3045 ft | 233 kts | 92° |
| 2026-05-06 06:59 | 22.33911 | 114.05796 | 3371 ft | 235 kts | 118° |
| 2026-05-06 06:59 | 22.32890 | 114.07163 | 3678 ft | 237 kts | 143° |
| 2026-05-06 06:59 | 22.31477 | 114.08119 | 3958 ft | 244 kts | 156° |
| 2026-05-06 07:00 | 22.29853 | 114.08707 | 4255 ft | 248 kts | 171° |
| 2026-05-06 07:00 | 22.28136 | 114.08843 | 4657 ft | 249 kts | 184° |
| 2026-05-06 07:00 | 22.26363 | 114.08708 | 4856 ft | 261 kts | 185° |
| 2026-05-06 07:00 | 22.24545 | 114.08608 | 5151 ft | 268 kts | 183° |
| 2026-05-06 07:01 | 22.22660 | 114.08609 | 5556 ft | 271 kts | 180° |
| 2026-05-06 07:01 | 22.20763 | 114.08625 | 6067 ft | 272 kts | 182° |
| 2026-05-06 07:01 | 22.18872 | 114.08740 | 6536 ft | 275 kts | 169° |
| 2026-05-06 07:01 | 22.17145 | 114.09626 | 6908 ft | 282 kts | 140° |
| 2026-05-06 07:02 | 22.16055 | 114.11391 | 7258 ft | 290 kts | 110° |
| 2026-05-06 07:02 | 22.15760 | 114.13574 | 7581 ft | 298 kts | 91° |
| 2026-05-06 07:02 | 22.15682 | 114.15812 | 8008 ft | 300 kts | 95° |
| 2026-05-06 07:02 | 22.15510 | 114.18028 | 8504 ft | 300 kts | 97° |
| 2026-05-06 07:03 | 22.15318 | 114.20276 | 8947 ft | 302 kts | 96° |
| 2026-05-06 07:03 | 22.15243 | 114.21301 | 9137 ft | 305 kts | 95° |
| 2026-05-06 07:03 | 22.15131 | 114.22788 | 9345 ft | 309 kts | 96° |
| 2026-05-06 07:03 | 22.15030 | 114.25118 | 9777 ft | 312 kts | 86° |
| 2026-05-06 07:04 | 22.15438 | 114.27423 | 10165 ft | 315 kts | 75° |
| 2026-05-06 07:04 | 22.16004 | 114.29762 | 10308 ft | 329 kts | 75° |
| 2026-05-06 07:04 | 22.16586 | 114.32203 | 10485 ft | 341 kts | 75° |
| 2026-05-06 07:04 | 22.17361 | 114.34639 | 10743 ft | 347 kts | 62° |
| 2026-05-06 07:05 | 22.18812 | 114.36734 | 10963 ft | 352 kts | 39° |
| 2026-05-06 07:05 | 22.20876 | 114.38081 | 11207 ft | 353 kts | 15° |
| 2026-05-06 07:05 | 22.23297 | 114.38449 | 11477 ft | 352 kts | 352° |
| 2026-05-06 07:05 | 22.25649 | 114.37778 | 11707 ft | 352 kts | 330° |
| 2026-05-06 07:06 | 22.27601 | 114.36196 | 11894 ft | 354 kts | 309° |
| 2026-05-06 07:06 | 22.29058 | 114.34033 | 12152 ft | 358 kts | 303° |
| 2026-05-06 07:06 | 22.30493 | 114.31802 | 12336 ft | 365 kts | 303° |
| 2026-05-06 07:06 | 22.32023 | 114.29574 | 12507 ft | 374 kts | 306° |
| 2026-05-06 07:07 | 22.33737 | 114.27439 | 12665 ft | 382 kts | 313° |
| 2026-05-06 07:07 | 22.35837 | 114.25589 | 12835 ft | 392 kts | 323° |
| 2026-05-06 07:07 | 22.38048 | 114.24030 | 13057 ft | 396 kts | 326° |
| 2026-05-06 07:07 | 22.40400 | 114.22459 | 13388 ft | 398 kts | 326° |
| 2026-05-06 07:08 | 22.42766 | 114.20901 | 13703 ft | 400 kts | 326° |
| 2026-05-06 07:08 | 22.45148 | 114.19340 | 13966 ft | 402 kts | 326° |
| 2026-05-06 07:08 | 22.47502 | 114.17802 | 14219 ft | 404 kts | 326° |
| 2026-05-06 07:08 | 22.49912 | 114.16228 | 14463 ft | 406 kts | 326° |
| 2026-05-06 07:09 | 22.52329 | 114.14650 | 14727 ft | 408 kts | 327° |
| 2026-05-06 07:09 | 22.54796 | 114.13107 | 14988 ft | 410 kts | 329° |